Time;durP1;ratioP1;P1;durP2;ratioP2;P2;SDS_P1;SDS_P2;PMS_P1;PMS_P2;Temp;Humidity;BMP_temperature;BMP_pressure;BME280_temperature;BME280_humidity;BME280_pressure;Samples;Min_cycle;Max_cycle;Signal;HPM_P1;HPM_P2
2021/09/23 00:00:25;;;;;;;17.48;12.28;;;;;;;11.70;100.00;100737.02;1724441;81;21535;-89
2021/09/23 00:05:22;;;;;;;21.02;12.50;;;;;;;11.69;100.00;100722.13;1752975;82;21010;-89
2021/09/23 00:07:51;;;;;;;18.15;11.95;;;;;;;11.68;100.00;100720.89;1720281;83;21021;-89
2021/09/23 00:10:22;;;;;;;21.65;11.78;;;;;;;11.68;100.00;100723.53;1719636;82;20996;-90
2021/09/23 00:12:50;;;;;;;20.10;10.93;;;;;;;11.68;100.00;100732.78;1718612;83;21016;-90
2021/09/23 00:15:16;;;;;;;14.23;10.30;;;;;;;11.67;100.00;100724.02;1721660;82;21005;-90
2021/09/23 00:17:48;;;;;;;17.87;12.07;;;;;;;11.67;100.00;100721.37;1720429;82;21488;-89
2021/09/23 00:20:18;;;;;;;14.98;10.88;;;;;;;11.64;100.00;100707.53;1721407;82;21049;-90
2021/09/23 00:22:45;;;;;;;14.70;10.40;;;;;;;11.60;100.00;100714.00;1733754;82;21041;-88
2021/09/23 00:25:12;;;;;;;14.68;10.03;;;;;;;11.57;100.00;100709.77;1735338;81;20990;-90
2021/09/23 00:27:38;;;;;;;18.35;11.63;;;;;;;11.53;100.00;100703.02;1719181;83;21596;-89
2021/09/23 00:30:07;;;;;;;15.35;11.55;;;;;;;11.51;100.00;100702.27;1699583;83;21011;-89
2021/09/23 00:32:33;;;;;;;16.02;11.28;;;;;;;11.48;100.00;100698.52;1712237;83;21007;-89
2021/09/23 00:34:59;;;;;;;15.15;11.80;;;;;;;11.42;100.00;100698.97;1690644;85;21022;-89
2021/09/23 00:37:25;;;;;;;15.58;11.60;;;;;;;11.40;100.00;100695.58;1690435;84;21030;-89
2021/09/23 00:39:51;;;;;;;15.18;11.10;;;;;;;11.38;100.00;100688.22;1717002;82;21017;-89
2021/09/23 00:42:18;;;;;;;14.90;10.53;;;;;;;11.36;100.00;100676.94;1757745;81;20958;-89
2021/09/23 00:45:01;;;;;;;14.13;10.50;;;;;;;11.31;100.00;100685.17;1739335;82;21539;-88
2021/09/23 00:47:27;;;;;;;13.32;10.43;;;;;;;11.27;100.00;100683.70;1722237;82;21013;-91
2021/09/23 00:49:53;;;;;;;14.95;11.43;;;;;;;11.20;100.00;100674.52;1758034;81;21025;-91
2021/09/23 00:52:19;;;;;;;14.87;10.38;;;;;;;11.16;100.00;100673.89;1757838;81;21041;-91
2021/09/23 00:54:49;;;;;;;12.50;9.28;;;;;;;11.12;100.00;100672.88;1752428;81;20987;-91
2021/09/23 00:57:17;;;;;;;12.98;10.20;;;;;;;11.06;100.00;100668.05;1719455;83;21074;-89
2021/09/23 00:59:46;;;;;;;24.67;11.45;;;;;;;11.01;100.00;100669.66;1705352;83;21019;-90
2021/09/23 01:02:12;;;;;;;16.02;11.57;;;;;;;10.97;100.00;100666.87;1691253;83;21059;-90
2021/09/23 01:04:43;;;;;;;19.67;11.08;;;;;;;10.93;100.00;100656.16;1690803;84;21067;-90
2021/09/23 01:07:07;;;;;;;14.53;10.60;;;;;;;10.91;100.00;100658.05;1690444;85;21063;-90
2021/09/23 01:09:37;;;;;;;14.58;10.13;;;;;;;10.89;100.00;100658.61;1690741;85;21019;-90
2021/09/23 01:12:04;;;;;;;13.48;9.80;;;;;;;10.87;100.00;100651.29;1690651;85;21530;-90
2021/09/23 01:14:30;;;;;;;15.85;10.08;;;;;;;10.86;100.00;100649.58;1735385;82;20958;-90
2021/09/23 01:16:55;;;;;;;14.35;9.23;;;;;;;10.86;100.00;100649.58;1752985;81;21089;-90
2021/09/23 01:19:22;;;;;;;17.17;10.88;;;;;;;10.84;100.00;100649.70;1724402;82;21037;-90
2021/09/23 01:21:47;;;;;;;17.77;11.45;;;;;;;10.82;100.00;100648.95;1757152;81;21017;-90
2021/09/23 01:24:13;;;;;;;12.70;9.70;;;;;;;10.80;100.00;100647.75;1712083;81;22427;-90
2021/09/23 01:26:39;;;;;;;16.57;10.80;;;;;;;10.79;100.00;100648.70;1690588;85;21140;-90
2021/09/23 01:29:05;;;;;;;15.25;9.78;;;;;;;10.78;100.00;100639.55;1729832;82;21556;-90
2021/09/23 01:31:31;;;;;;;17.45;9.98;;;;;;;10.76;100.00;100643.64;1757619;82;20939;-90
2021/09/23 01:33:57;;;;;;;17.75;10.03;;;;;;;10.73;100.00;100645.16;1755328;81;20978;-90
2021/09/23 01:36:23;;;;;;;16.67;8.90;;;;;;;10.73;100.00;100646.48;1717279;81;20991;-90
2021/09/23 01:38:52;;;;;;;17.23;9.60;;;;;;;10.73;100.00;100645.64;1759557;81;21483;-90
2021/09/23 01:41:18;;;;;;;15.28;10.03;;;;;;;10.73;100.00;100646.48;1760078;81;21057;-90
2021/09/23 01:43:44;;;;;;;14.15;9.18;;;;;;;10.75;100.00;100642.41;1761119;81;21040;-89
2021/09/23 01:46:10;;;;;;;16.97;10.75;;;;;;;10.76;100.00;100638.84;1768572;81;21482;-90
2021/09/23 01:48:36;;;;;;;14.15;8.63;;;;;;;10.77;100.00;100635.23;1743510;81;21033;-89
2021/09/23 01:51:02;;;;;;;16.52;9.60;;;;;;;10.77;100.00;100632.12;1755976;82;21500;-90
2021/09/23 01:53:28;;;;;;;15.78;9.23;;;;;;;10.79;100.00;100632.88;1757963;81;21041;-90
2021/09/23 01:55:54;;;;;;;18.85;10.55;;;;;;;10.81;100.00;100627.47;1757387;81;21476;-90
2021/09/23 01:58:19;;;;;;;16.82;9.35;;;;;;;10.82;100.00;100623.87;1758049;81;21044;-90
2021/09/23 02:00:45;;;;;;;24.95;9.83;;;;;;;10.83;100.00;100620.30;1755181;82;20970;-90
2021/09/23 02:03:11;;;;;;;16.45;10.03;;;;;;;10.85;100.00;100614.91;1754249;82;21054;-90
2021/09/23 02:05:39;;;;;;;17.10;10.43;;;;;;;10.85;100.00;100621.02;1741937;81;20942;-90
2021/09/23 02:08:05;;;;;;;21.30;10.65;;;;;;;10.87;100.00;100610.37;1720367;83;21061;-89
2021/09/23 02:10:32;;;;;;;14.63;9.13;;;;;;;10.87;100.00;100607.25;1748611;82;21115;-90
2021/09/23 02:12:58;;;;;;;15.75;9.45;;;;;;;10.88;100.00;100608.09;1757785;81;21535;-90
2021/09/23 02:15:24;;;;;;;15.28;9.23;;;;;;;10.90;100.00;100600.92;1730567;81;20971;-90
2021/09/23 02:17:50;;;;;;;13.10;7.70;;;;;;;10.90;100.00;100589.87;1702349;82;21516;-90
2021/09/23 02:20:16;;;;;;;14.58;8.50;;;;;;;10.91;100.00;100590.23;1720627;83;21104;-90
2021/09/23 02:22:42;;;;;;;17.95;8.73;;;;;;;10.94;100.00;100583.91;1721032;82;21470;-90
2021/09/23 02:25:09;;;;;;;17.37;8.60;;;;;;;10.94;100.00;100582.11;1748619;82;20985;-89
2021/09/23 02:27:35;;;;;;;17.40;8.08;;;;;;;10.95;100.00;100581.14;1757844;82;21037;-90
2021/09/23 02:30:03;;;;;;;16.15;8.20;;;;;;;10.96;100.00;100578.05;1694862;82;21470;-90
2021/09/23 02:32:30;;;;;;;15.03;7.28;;;;;;;10.97;100.00;100574.45;1729417;82;21021;-90
2021/09/23 02:34:56;;;;;;;15.40;8.28;;;;;;;10.98;100.00;100572.17;1697606;82;21501;-90
2021/09/23 02:37:24;;;;;;;14.60;8.10;;;;;;;11.00;100.00;100576.88;1721587;81;20975;-90
2021/09/23 02:39:51;;;;;;;18.87;8.28;;;;;;;11.02;100.00;100576.28;1720559;83;21025;-90
2021/09/23 02:42:17;;;;;;;13.72;7.95;;;;;;;11.04;100.00;100571.74;1720378;83;21088;-90
2021/09/23 02:44:43;;;;;;;13.00;7.65;;;;;;;11.04;100.00;100570.42;1736508;82;20977;-90
2021/09/23 02:47:10;;;;;;;15.40;7.95;;;;;;;11.05;100.00;100569.45;1757957;81;21042;-90
2021/09/23 02:49:36;;;;;;;15.70;7.78;;;;;;;11.08;100.00;100569.25;1745182;81;21541;-90
2021/09/23 02:52:02;;;;;;;19.80;8.30;;;;;;;11.07;100.00;100566.25;1747319;82;21000;-90
2021/09/23 02:54:28;;;;;;;14.47;7.53;;;;;;;11.11;100.00;100569.52;1738243;81;20970;-90
2021/09/23 02:56:54;;;;;;;15.40;8.73;;;;;;;11.10;100.00;100566.03;1757858;81;21622;-90
2021/09/23 02:59:20;;;;;;;15.48;8.90;;;;;;;11.11;100.00;100562.91;1757892;81;21081;-90
2021/09/23 03:01:46;;;;;;;14.50;7.25;;;;;;;11.13;100.00;100558.38;1740973;81;20969;-90
2021/09/23 03:04:12;;;;;;;12.90;7.95;;;;;;;11.13;100.00;100552.61;1757974;81;21064;-90
2021/09/23 03:06:38;;;;;;;16.45;9.13;;;;;;;11.14;100.00;100556.93;1739475;82;21021;-90
2021/09/23 03:09:04;;;;;;;15.58;9.03;;;;;;;11.14;100.00;100552.13;1722116;82;20992;-90
2021/09/23 03:11:30;;;;;;;17.57;9.58;;;;;;;11.15;100.00;100541.92;1720435;83;21033;-90
2021/09/23 03:13:56;;;;;;;14.90;9.20;;;;;;;11.17;100.00;100545.31;1721129;82;21000;-90
2021/09/23 03:16:23;;;;;;;12.95;8.13;;;;;;;11.16;100.00;100549.75;1757888;82;21120;-90
2021/09/23 03:18:48;;;;;;;15.23;9.10;;;;;;;11.17;100.00;100546.15;1728230;82;21480;-90
2021/09/23 03:21:15;;;;;;;15.05;8.88;;;;;;;11.18;100.00;100543.86;1719653;82;21012;-90
2021/09/23 03:23:41;;;;;;;12.82;9.13;;;;;;;11.19;100.00;100532.84;1691178;83;21035;-90
2021/09/23 03:26:07;;;;;;;16.65;9.23;;;;;;;11.20;100.00;100535.84;1690687;85;21043;-90
2021/09/23 03:28:36;;;;;;;14.50;7.92;;;;;;;11.20;100.00;100530.08;1697170;82;21030;-89
2021/09/23 03:31:02;;;;;;;13.58;8.10;;;;;;;11.20;100.00;100525.28;1730327;81;20993;-90
2021/09/23 03:33:28;;;;;;;15.10;7.78;;;;;;;11.21;100.00;100519.03;1752746;82;20992;-90
2021/09/23 03:35:54;;;;;;;14.50;7.92;;;;;;;11.21;100.00;100515.08;1702034;83;21004;-89
2021/09/23 03:38:20;;;;;;;12.28;7.15;;;;;;;11.22;100.00;100514.11;1691534;82;21011;-90
2021/09/23 03:40:48;;;;;;;12.80;7.42;;;;;;;11.23;100.00;100511.86;1726100;82;21013;-89
2021/09/23 03:43:18;;;;;;;15.88;7.67;;;;;;;11.22;100.00;100507.05;1720007;83;21528;-89
2021/09/23 03:45:46;;;;;;;17.30;7.47;;;;;;;11.23;100.00;100497.33;1720280;83;21034;-90
2021/09/23 03:48:12;;;;;;;13.88;7.15;;;;;;;11.23;100.00;100490.72;1720598;82;21452;-89
2021/09/23 03:50:38;;;;;;;16.17;6.42;;;;;;;11.23;100.00;100491.56;1719309;83;21011;-90
2021/09/23 03:53:05;;;;;;;16.40;6.78;;;;;;;11.22;100.00;100480.64;1698791;83;21006;-89
2021/09/23 03:55:31;;;;;;;17.25;6.72;;;;;;;11.22;100.00;100472.72;1713460;82;21429;-90
2021/09/23 03:57:57;;;;;;;9.28;5.60;;;;;;;11.23;100.00;100472.23;1751509;82;21535;-90
2021/09/23 04:00:25;;;;;;;15.32;6.45;;;;;;;11.20;100.00;100465.85;1733775;82;20998;-90
2021/09/23 04:02:51;;;;;;;13.62;6.17;;;;;;;11.18;100.00;100468.59;1736107;82;21078;-89
2021/09/23 04:05:17;;;;;;;10.40;4.97;;;;;;;11.18;100.00;100464.63;1729037;82;21045;-90
2021/09/23 04:07:43;;;;;;;17.23;6.58;;;;;;;11.17;100.00;100473.52;1746917;81;21052;-90
2021/09/23 04:10:11;;;;;;;12.25;6.03;;;;;;;11.17;100.00;100473.52;1720562;82;21472;-90
2021/09/23 04:12:38;;;;;;;11.75;5.80;;;;;;;11.17;100.00;100477.48;1740758;82;21076;-90
2021/09/23 04:15:06;;;;;;;15.20;5.87;;;;;;;11.15;100.00;100466.17;1750343;81;20989;-90
2021/09/23 04:17:33;;;;;;;14.98;7.25;;;;;;;11.15;100.00;100466.17;1741483;82;20977;-90
2021/09/23 04:19:59;;;;;;;11.38;6.33;;;;;;;11.14;100.00;100473.73;1720456;81;21016;-90
2021/09/23 04:22:25;;;;;;;15.83;6.83;;;;;;;11.14;100.00;100472.41;1729153;81;20978;-90
2021/09/23 04:24:51;;;;;;;16.27;5.62;;;;;;;11.13;100.00;100476.02;1720774;83;21529;-90
2021/09/23 04:27:18;;;;;;;15.72;6.08;;;;;;;11.13;100.00;100471.22;1733099;81;21008;-90
2021/09/23 04:29:44;;;;;;;14.87;5.95;;;;;;;11.11;100.00;100471.31;1761675;81;21052;-90
2021/09/23 04:32:12;;;;;;;12.13;5.87;;;;;;;11.11;100.00;100477.92;1756407;81;21001;-90
2021/09/23 04:34:38;;;;;;;12.55;5.92;;;;;;;11.10;100.00;100477.56;1746632;82;21033;-90
2021/09/23 04:37:04;;;;;;;13.13;6.60;;;;;;;11.11;100.00;100475.28;1753824;81;21024;-90
2021/09/23 04:39:30;;;;;;;11.78;5.60;;;;;;;11.12;100.00;100477.44;1763073;81;21038;-90
2021/09/23 04:41:56;;;;;;;14.73;6.25;;;;;;;11.12;100.00;100472.16;1760120;81;21017;-89
2021/09/23 04:44:23;;;;;;;15.90;6.03;;;;;;;11.11;100.00;100465.20;1760196;81;21023;-90
2021/09/23 04:46:50;;;;;;;17.60;5.50;;;;;;;11.12;100.00;100466.42;1759872;81;21519;-89
2021/09/23 04:49:16;;;;;;;12.93;6.75;;;;;;;11.11;100.00;100463.39;1760225;81;21080;-89
2021/09/23 04:51:42;;;;;;;17.32;7.15;;;;;;;11.12;100.00;100463.78;1759543;81;20986;-89
2021/09/23 04:54:08;;;;;;;12.88;6.25;;;;;;;11.11;100.00;100456.79;1727349;81;21005;-89
2021/09/23 04:56:35;;;;;;;20.75;6.42;;;;;;;11.12;100.00;100453.22;1721850;82;21049;-89
2021/09/23 04:59:01;;;;;;;14.15;5.92;;;;;;;11.12;100.00;100449.70;1719187;83;21039;-89
2021/09/23 05:01:28;;;;;;;13.62;5.28;;;;;;;11.12;100.00;100442.66;1719350;83;21023;-89
2021/09/23 05:03:54;;;;;;;12.58;5.95;;;;;;;11.13;100.00;100445.65;1739842;82;21040;-89
2021/09/23 05:06:20;;;;;;;14.95;6.92;;;;;;;11.14;100.00;100446.48;1735337;82;21597;-89
2021/09/23 05:08:46;;;;;;;15.48;5.92;;;;;;;11.13;100.00;100432.44;1690556;85;21620;-90
2021/09/23 05:11:12;;;;;;;15.25;6.22;;;;;;;11.14;100.00;100439.41;1690638;85;21061;-89
2021/09/23 05:13:38;;;;;;;15.53;4.97;;;;;;;11.14;100.00;100436.77;1690559;84;21021;-89
2021/09/23 05:16:05;;;;;;;16.10;6.10;;;;;;;11.14;100.00;100440.72;1690562;85;21777;-89
2021/09/23 05:18:31;;;;;;;15.05;5.47;;;;;;;11.15;100.00;100443.72;1690617;85;21022;-89
2021/09/23 05:20:57;;;;;;;13.53;6.53;;;;;;;11.15;100.00;100441.08;1690601;84;21046;-89
2021/09/23 05:23:23;;;;;;;14.93;6.03;;;;;;;11.16;100.00;100440.14;1690590;84;21065;-89
2021/09/23 05:25:49;;;;;;;10.18;5.75;;;;;;;11.18;100.00;100437.37;1690603;84;21085;-89
2021/09/23 05:28:15;;;;;;;17.70;6.67;;;;;;;11.05;100.00;100414.98;1690565;85;21029;-89
2021/09/23 05:30:42;;;;;;;17.55;5.58;;;;;;;11.19;100.00;100433.32;1690703;84;20974;-89
2021/09/23 05:33:08;;;;;;;14.43;6.67;;;;;;;11.21;100.00;100446.40;1690381;85;21068;-89
2021/09/23 05:35:35;;;;;;;17.27;6.10;;;;;;;11.20;100.00;100442.92;1690313;85;21030;-89
2021/09/23 05:38:01;;;;;;;16.30;5.75;;;;;;;11.21;100.00;100447.23;1690481;85;21033;-89
2021/09/23 05:40:27;;;;;;;12.03;5.47;;;;;;;11.21;100.00;100444.59;1690570;85;21559;-89
2021/09/23 05:42:53;;;;;;;16.17;5.67;;;;;;;11.21;100.00;100436.67;1690511;84;21065;-89
2021/09/23 05:45:19;;;;;;;23.62;7.17;;;;;;;11.21;100.00;100435.35;1690556;85;21007;-89
2021/09/23 05:47:46;;;;;;;12.43;5.37;;;;;;;11.20;100.00;100432.84;1690471;84;21033;-88
2021/09/23 05:50:13;;;;;;;16.17;6.65;;;;;;;11.19;100.00;100431.16;1690277;85;21077;-89
2021/09/23 05:52:39;;;;;;;14.90;6.35;;;;;;;11.18;100.00;100436.89;1742593;81;20965;-89
2021/09/23 05:55:07;;;;;;;16.73;7.45;;;;;;;11.17;100.00;100431.26;1766163;81;21028;-89
2021/09/23 05:57:34;;;;;;;18.35;7.85;;;;;;;11.18;100.00;100433.41;1765943;81;21027;-89
2021/09/23 06:00:16;;;;;;;15.18;6.83;;;;;;;11.19;100.00;100432.00;1766162;81;21033;-89
2021/09/23 06:02:44;;;;;;;16.65;6.30;;;;;;;11.20;100.00;100429.72;1766102;81;21543;-89
2021/09/23 06:05:13;;;;;;;13.55;7.28;;;;;;;11.21;100.00;100431.39;1766152;81;20984;-89
2021/09/23 06:07:40;;;;;;;11.93;5.75;;;;;;;11.23;100.00;100433.45;1766011;81;21017;-89
2021/09/23 06:10:08;;;;;;;14.65;6.45;;;;;;;11.23;100.00;100429.48;1766394;81;21460;-88
2021/09/23 06:12:35;;;;;;;13.65;7.75;;;;;;;11.25;100.00;100430.23;1766076;81;20997;-89
2021/09/23 06:15:01;;;;;;;19.42;7.53;;;;;;;11.28;100.00;100423.37;1739206;82;21022;-89
2021/09/23 06:17:27;;;;;;;22.17;7.25;;;;;;;11.33;100.00;100424.38;1735944;82;21034;-89
2021/09/23 06:19:53;;;;;;;14.85;6.45;;;;;;;11.35;100.00;100427.75;1693091;82;21083;-89
2021/09/23 06:22:19;;;;;;;18.65;8.00;;;;;;;11.37;100.00;100424.50;1746691;82;20942;-89
2021/09/23 06:24:45;;;;;;;13.62;7.58;;;;;;;11.41;100.00;100423.80;1748608;81;20998;-89
2021/09/23 06:27:11;;;;;;;19.27;7.17;;;;;;;11.42;100.00;100427.66;1742340;81;21495;-91
2021/09/23 06:29:37;;;;;;;22.55;8.28;;;;;;;11.46;100.00;100422.98;1766269;81;21001;-89
2021/09/23 06:32:05;;;;;;;22.20;7.35;;;;;;;11.49;100.00;100418.31;1734566;81;21483;-88
2021/09/23 06:34:31;;;;;;;17.67;6.72;;;;;;;11.54;100.00;100415.80;1728025;83;21016;-89
2021/09/23 06:36:57;;;;;;;13.68;5.97;;;;;;;11.57;100.00;100413.76;1727633;83;21551;-88
2021/09/23 06:39:23;;;;;;;14.13;6.95;;;;;;;11.62;100.00;100406.34;1727811;83;20993;-89
2021/09/23 06:41:49;;;;;;;12.85;6.28;;;;;;;11.67;100.00;100402.85;1723903;81;21525;-88
2021/09/23 06:44:14;;;;;;;13.50;6.33;;;;;;;11.73;100.00;100402.39;1690701;84;21015;-88
2021/09/23 06:46:41;;;;;;;13.25;5.75;;;;;;;11.80;100.00;100399.28;1690406;85;21549;-89
2021/09/23 06:49:07;;;;;;;18.00;6.62;;;;;;;11.87;100.00;100395.23;1715927;83;21489;-88
2021/09/23 06:51:33;;;;;;;17.45;6.67;;;;;;;11.93;100.00;100392.13;1719215;83;20991;-88
2021/09/23 06:53:59;;;;;;;18.15;7.25;;;;;;;11.99;100.00;100386.85;1719320;83;21079;-90
2021/09/23 06:56:25;;;;;;;15.48;6.97;;;;;;;12.05;100.00;100400.92;1719233;83;21408;-88
2021/09/23 06:58:51;;;;;;;19.07;7.22;;;;;;;12.11;100.00;100391.16;1719123;83;21000;-88
2021/09/23 07:01:17;;;;;;;14.93;6.40;;;;;;;12.16;100.00;100395.14;1693830;83;21001;-89
2021/09/23 07:03:43;;;;;;;12.60;6.58;;;;;;;12.23;100.00;100401.28;1690559;84;21034;-88
2021/09/23 07:06:09;;;;;;;14.70;6.62;;;;;;;12.31;100.00;100390.95;1690582;85;20998;-89
2021/09/23 07:08:35;;;;;;;13.58;7.30;;;;;;;12.38;100.00;100396.11;1690458;85;21034;-89
2021/09/23 07:11:04;;;;;;;11.85;7.95;;;;;;;12.43;100.00;100392.13;1690617;85;21057;-89
2021/09/23 07:13:31;;;;;;;14.80;7.15;;;;;;;12.49;100.00;100391.29;1690467;85;21021;-92
2021/09/23 07:15:59;;;;;;;15.05;8.45;;;;;;;12.54;100.00;100387.32;1698648;82;21094;-90
2021/09/23 07:18:27;;;;;;;16.55;8.30;;;;;;;12.59;100.00;100389.10;1732059;82;21072;-88
2021/09/23 07:20:55;;;;;;;17.82;8.93;;;;;;;12.63;100.00;100385.23;1729812;81;21538;-91
2021/09/23 07:23:23;;;;;;;16.15;9.33;;;;;;;12.72;100.00;100387.64;1719926;82;21078;-88
2021/09/23 07:25:52;;;;;;;16.62;8.60;;;;;;;12.79;100.00;100386.17;1718463;83;21018;-89
2021/09/23 07:28:18;;;;;;;15.30;8.80;;;;;;;12.84;100.00;100383.17;1694630;83;21122;-90
2021/09/23 07:30:44;;;;;;;15.38;8.88;;;;;;;12.89;100.00;100388.43;1697508;82;21081;-89
2021/09/23 07:33:10;;;;;;;14.75;8.48;;;;;;;12.94;100.00;100382.78;1717079;82;21503;-88
2021/09/23 07:35:37;;;;;;;13.15;8.58;;;;;;;12.96;100.00;100387.45;1706270;82;21038;-89
2021/09/23 07:38:04;;;;;;;18.85;9.50;;;;;;;12.99;100.00;100389.84;1695040;83;21501;-88
2021/09/23 07:40:30;;;;;;;14.80;9.35;;;;;;;13.01;100.00;100385.77;1718561;83;21019;-90
2021/09/23 07:42:56;;;;;;;14.45;8.80;;;;;;;13.03;100.00;100385.14;1717475;83;20978;-89
2021/09/23 07:45:22;;;;;;;17.85;10.13;;;;;;;13.05;100.00;100384.05;1704329;83;21011;-91
2021/09/23 07:47:48;;;;;;;15.38;10.15;;;;;;;13.08;100.00;100386.94;1718465;83;21645;-91
2021/09/23 07:50:14;;;;;;;19.37;9.98;;;;;;;13.10;100.00;100384.53;1717542;83;21035;-89
2021/09/23 07:52:41;;;;;;;21.77;11.33;;;;;;;13.15;100.00;100381.48;1701076;83;21065;-89
2021/09/23 07:55:07;;;;;;;18.60;10.78;;;;;;;13.19;100.00;100376.77;1718841;81;21057;-88
2021/09/23 07:57:34;;;;;;;17.85;10.65;;;;;;;13.22;100.00;100380.50;1704665;81;21040;-90
2021/09/23 08:00:03;;;;;;;20.17;11.12;;;;;;;13.26;100.00;100371.34;1707931;81;21037;-89
2021/09/23 08:02:29;;;;;;;19.62;10.55;;;;;;;13.28;100.00;100372.91;1731469;82;21050;-87
2021/09/23 08:04:55;;;;;;;18.82;10.72;;;;;;;13.32;100.00;100370.35;1727981;81;21082;-90
2021/09/23 08:07:21;;;;;;;17.75;11.85;;;;;;;13.34;100.00;100367.11;1722614;83;21052;-88
2021/09/23 08:09:47;;;;;;;16.45;11.20;;;;;;;13.37;100.00;100363.36;1710411;82;21033;-90
2021/09/23 08:12:14;;;;;;;17.87;10.88;;;;;;;13.41;100.00;100368.76;1688771;83;21045;-89
2021/09/23 08:14:40;;;;;;;16.05;10.60;;;;;;;13.44;100.00;100359.23;1700986;81;21034;-88
2021/09/23 08:17:07;;;;;;;20.72;11.18;;;;;;;13.50;100.00;100358.72;1691443;82;21049;-88
2021/09/23 08:19:37;;;;;;;14.47;10.48;;;;;;;13.56;100.00;100346.77;1689983;85;21065;-90
2021/09/23 08:22:05;;;;;;;17.27;10.98;;;;;;;13.61;100.00;100342.73;1751757;82;21084;-89
2021/09/23 08:24:33;;;;;;;15.95;10.40;;;;;;;13.72;100.00;100334.34;1718046;83;21332;-89
2021/09/23 08:26:59;;;;;;;19.90;9.80;;;;;;;13.81;100.00;100333.55;1718426;83;21453;-90
2021/09/23 08:29:25;;;;;;;18.82;11.05;;;;;;;13.90;100.00;100335.91;1695090;83;20999;-90
2021/09/23 08:31:51;;;;;;;15.15;11.05;;;;;;;13.99;100.00;100334.63;1746851;82;20989;-91
2021/09/23 08:34:18;;;;;;;19.50;11.28;;;;;;;14.04;100.00;100343.50;1757103;81;21543;-89
2021/09/23 08:36:45;;;;;;;22.20;11.85;;;;;;;14.06;100.00;100335.77;1757109;82;21061;-89
2021/09/23 08:39:12;;;;;;;15.60;10.55;;;;;;;14.12;100.00;100332.25;1720280;82;21443;-90
2021/09/23 08:41:39;;;;;;;23.87;11.93;;;;;;;14.17;100.00;100330.02;1718252;82;20979;-92
2021/09/23 08:44:06;;;;;;;20.12;12.73;;;;;;;14.26;100.00;100323.91;1718630;83;21061;-88
2021/09/23 08:46:34;;;;;;;19.10;12.85;;;;;;;14.36;100.00;100318.13;1718549;83;21030;-90
2021/09/23 08:49:04;;;;;;;16.37;11.50;;;;;;;14.40;100.00;100319.53;1719336;82;20970;-89
2021/09/23 08:51:30;;;;;;;17.62;12.23;;;;;;;14.43;100.00;100312.63;1717611;83;21016;-90
2021/09/23 08:53:56;;;;;;;18.20;13.83;;;;;;;14.45;100.00;100304.05;1718259;83;21023;-88
2021/09/23 08:56:23;;;;;;;19.50;14.45;;;;;;;14.47;100.00;100301.24;1717725;82;21497;-88
2021/09/23 08:58:50;;;;;;;17.55;12.30;;;;;;;14.51;100.00;100297.36;1716730;83;21110;-90
2021/09/23 09:01:23;;;;;;;17.37;12.13;;;;;;;14.58;100.00;100296.32;1697885;83;21519;-87
2021/09/23 09:03:46;;;;;;;18.82;12.90;;;;;;;14.67;100.00;100294.17;1716690;83;21477;-89
2021/09/23 09:06:14;;;;;;;20.52;12.23;;;;;;;14.73;100.00;100292.30;1701759;82;21506;-88
2021/09/23 09:08:42;;;;;;;20.35;13.20;;;;;;;14.76;100.00;100291.52;1690042;85;21057;-88
2021/09/23 09:11:13;;;;;;;18.37;12.55;;;;;;;14.79;100.00;100286.43;1694872;83;21540;-88
2021/09/23 09:13:49;;;;;;;19.37;12.65;;;;;;;14.83;100.00;100277.69;1716469;82;21026;-90
2021/09/23 09:16:25;;;;;;;19.57;11.43;;;;;;;14.83;99.83;100287.82;1715709;83;21084;-88
2021/09/23 09:19:05;;;;;;;20.82;13.78;;;;;;;14.84;99.51;100288.66;1727362;83;21540;-88
2021/09/23 09:21:28;;;;;;;19.07;13.32;;;;;;;14.84;99.64;100282.02;1726134;81;21007;-87
2021/09/23 09:24:01;;;;;;;17.95;11.28;;;;;;;14.84;99.85;100284.20;1714829;83;21360;-87
2021/09/23 09:26:32;;;;;;;15.20;12.25;;;;;;;14.87;99.82;100290.58;1726529;83;21003;-88
2021/09/23 09:29:03;;;;;;;18.20;11.28;;;;;;;14.92;100.00;100276.86;1721635;81;21064;-89
2021/09/23 09:31:29;;;;;;;16.37;11.97;;;;;;;15.04;100.00;100264.24;1730570;83;21050;-88
2021/09/23 09:33:59;;;;;;;17.48;10.82;;;;;;;15.14;100.00;100255.80;1722847;82;20989;-88
2021/09/23 09:36:36;;;;;;;13.38;9.88;;;;;;;15.22;99.80;100254.58;1717646;83;21588;-88
2021/09/23 09:39:11;;;;;;;17.07;10.48;;;;;;;15.31;100.00;100253.73;1690978;83;21058;-88
2021/09/23 09:41:41;;;;;;;19.05;10.48;;;;;;;15.41;100.00;100249.22;1741013;82;21480;-87
2021/09/23 09:44:11;;;;;;;12.73;9.83;;;;;;;15.54;99.63;100249.40;1724367;81;21032;-88
2021/09/23 09:46:48;;;;;;;16.85;10.43;;;;;;;15.63;99.01;100242.72;1720932;82;21009;-88
2021/09/23 09:49:12;;;;;;;16.20;10.95;;;;;;;15.70;98.14;100233.69;1723207;82;21024;-87
2021/09/23 09:51:49;;;;;;;15.23;10.45;;;;;;;15.77;97.36;100241.92;1727218;83;21334;-87
2021/09/23 09:54:19;;;;;;;13.32;10.45;;;;;;;15.81;97.21;100233.98;1693446;83;21541;-87
2021/09/23 09:57:01;;;;;;;12.30;9.70;;;;;;;15.83;96.95;100231.53;1731568;82;21025;-87
2021/09/23 09:59:27;;;;;;;15.15;9.65;;;;;;;15.85;97.70;100229.54;1717527;83;21078;-88
2021/09/23 10:01:56;;;;;;;13.32;9.95;;;;;;;15.90;97.64;100219.30;1702682;83;21008;-87
2021/09/23 10:04:27;;;;;;;15.05;11.22;;;;;;;15.98;97.43;100201.75;1689338;85;21515;-88
2021/09/23 10:06:55;;;;;;;12.47;9.53;;;;;;;16.06;97.86;100193.88;1688711;85;21073;-88
2021/09/23 10:09:22;;;;;;;14.75;10.25;;;;;;;16.12;96.59;100188.79;1689126;85;21144;-88
2021/09/23 10:11:49;;;;;;;13.65;10.20;;;;;;;16.19;97.08;100186.36;1694686;81;21001;-88
2021/09/23 10:14:17;;;;;;;15.28;9.15;;;;;;;16.27;96.78;100197.58;1692549;82;21002;-88
2021/09/23 10:16:45;;;;;;;16.40;10.72;;;;;;;16.38;96.57;100186.69;1717665;83;21050;-87
2021/09/23 10:19:12;;;;;;;14.30;11.28;;;;;;;16.46;95.37;100171.30;1709085;83;20975;-88
2021/09/23 10:21:38;;;;;;;23.35;12.13;;;;;;;16.53;94.98;100172.35;1712781;83;20995;-89
2021/09/23 10:24:07;;;;;;;14.38;10.82;;;;;;;16.55;92.97;100157.90;1687752;83;21050;-88
2021/09/23 10:26:38;;;;;;;17.12;11.05;;;;;;;16.57;93.30;100147.91;1698399;82;21013;-90
2021/09/23 10:29:05;;;;;;;14.58;10.50;;;;;;;16.63;93.09;100147.80;1727140;82;21009;-87
2021/09/23 10:31:33;;;;;;;14.93;11.70;;;;;;;16.68;93.47;100140.66;1718832;83;20998;-88
2021/09/23 10:34:03;;;;;;;15.40;10.78;;;;;;;16.75;92.32;100140.41;1718501;83;21563;-87
2021/09/23 10:36:35;;;;;;;15.45;10.40;;;;;;;16.76;92.08;100128.77;1722226;82;21102;-87
2021/09/23 10:39:05;;;;;;;16.48;12.82;;;;;;;16.78;90.75;100126.77;1756519;81;21363;-87
2021/09/23 10:41:34;;;;;;;14.65;11.68;;;;;;;16.77;90.90;100120.61;1756195;82;21009;-86
2021/09/23 10:44:01;;;;;;;17.05;12.23;;;;;;;16.79;91.09;100116.48;1756243;82;21065;-87
2021/09/23 10:46:28;;;;;;;15.15;11.40;;;;;;;16.82;90.94;100119.66;1752866;82;21052;-87
2021/09/23 10:48:56;;;;;;;15.05;12.50;;;;;;;16.85;90.27;100114.02;1689062;83;21057;-87
2021/09/23 10:51:23;;;;;;;16.23;12.03;;;;;;;16.91;89.69;100110.38;1714268;83;20999;-88
2021/09/23 10:53:58;;;;;;;14.60;11.00;;;;;;;16.95;90.42;100098.42;1717581;83;21082;-87
2021/09/23 10:56:27;;;;;;;13.43;9.45;;;;;;;17.05;91.10;100089.31;1734338;81;21061;-88
2021/09/23 10:58:54;;;;;;;11.57;9.88;;;;;;;17.19;91.64;100086.54;1715558;83;21547;-88
2021/09/23 11:01:28;;;;;;;11.75;8.55;;;;;;;17.28;90.27;100076.75;1727241;83;21053;-88
2021/09/23 11:03:58;;;;;;;11.48;8.45;;;;;;;17.30;89.30;100075.58;1721685;83;21009;-87
2021/09/23 11:06:40;;;;;;;11.30;7.78;;;;;;;17.30;89.39;100072.08;1696592;83;21077;-88
2021/09/23 11:09:26;;;;;;;10.82;8.80;;;;;;;17.29;89.05;100071.75;1725629;83;21022;-89